sensor_id;sensor_type;location;lat;lon;timestamp;P1;durP1;ratioP1;P2;durP2;ratioP2
14096;SDS011;7125;48.106;11.544;2023-05-27T00:00:43;11.73;;;7.40;;
14096;SDS011;7125;48.106;11.544;2023-05-27T00:03:10;9.13;;;7.05;;
14096;SDS011;7125;48.106;11.544;2023-05-27T00:05:37;8.88;;;6.97;;
14096;SDS011;7125;48.106;11.544;2023-05-27T00:08:06;8.55;;;6.55;;
14096;SDS011;7125;48.106;11.544;2023-05-27T00:10:35;11.05;;;6.93;;
14096;SDS011;7125;48.106;11.544;2023-05-27T00:13:02;8.65;;;7.20;;
14096;SDS011;7125;48.106;11.544;2023-05-27T00:15:29;10.50;;;7.05;;
14096;SDS011;7125;48.106;11.544;2023-05-27T00:17:57;11.48;;;7.75;;
14096;SDS011;7125;48.106;11.544;2023-05-27T00:20:25;8.55;;;7.25;;
14096;SDS011;7125;48.106;11.544;2023-05-27T00:22:52;12.32;;;8.27;;
14096;SDS011;7125;48.106;11.544;2023-05-27T00:25:21;13.73;;;8.85;;
14096;SDS011;7125;48.106;11.544;2023-05-27T00:27:49;9.52;;;7.85;;
14096;SDS011;7125;48.106;11.544;2023-05-27T00:30:16;9.38;;;8.10;;
14096;SDS011;7125;48.106;11.544;2023-05-27T00:32:43;10.07;;;8.32;;
14096;SDS011;7125;48.106;11.544;2023-05-27T00:35:10;10.20;;;8.18;;
14096;SDS011;7125;48.106;11.544;2023-05-27T00:37:37;8.82;;;7.90;;
14096;SDS011;7125;48.106;11.544;2023-05-27T00:40:04;9.43;;;8.43;;
14096;SDS011;7125;48.106;11.544;2023-05-27T00:42:36;8.35;;;7.55;;
14096;SDS011;7125;48.106;11.544;2023-05-27T00:45:03;12.40;;;7.47;;
14096;SDS011;7125;48.106;11.544;2023-05-27T00:47:31;10.80;;;8.25;;
14096;SDS011;7125;48.106;11.544;2023-05-27T00:49:59;8.75;;;7.60;;
14096;SDS011;7125;48.106;11.544;2023-05-27T00:52:28;9.60;;;7.95;;
14096;SDS011;7125;48.106;11.544;2023-05-27T00:54:55;10.35;;;8.82;;
14096;SDS011;7125;48.106;11.544;2023-05-27T00:57:23;8.73;;;7.68;;
14096;SDS011;7125;48.106;11.544;2023-05-27T00:59:52;11.77;;;8.77;;
14096;SDS011;7125;48.106;11.544;2023-05-27T01:02:19;10.30;;;8.43;;
14096;SDS011;7125;48.106;11.544;2023-05-27T01:04:47;9.60;;;7.57;;
14096;SDS011;7125;48.106;11.544;2023-05-27T01:07:16;11.10;;;8.23;;
14096;SDS011;7125;48.106;11.544;2023-05-27T01:09:50;9.73;;;7.85;;
14096;SDS011;7125;48.106;11.544;2023-05-27T01:12:21;10.10;;;9.07;;
14096;SDS011;7125;48.106;11.544;2023-05-27T01:14:57;10.18;;;8.75;;
14096;SDS011;7125;48.106;11.544;2023-05-27T01:17:25;9.85;;;8.85;;
14096;SDS011;7125;48.106;11.544;2023-05-27T01:19:54;11.82;;;8.75;;
14096;SDS011;7125;48.106;11.544;2023-05-27T01:22:26;9.53;;;8.10;;
14096;SDS011;7125;48.106;11.544;2023-05-27T01:24:54;10.27;;;8.52;;
14096;SDS011;7125;48.106;11.544;2023-05-27T01:27:22;9.63;;;8.40;;
14096;SDS011;7125;48.106;11.544;2023-05-27T01:29:50;9.53;;;8.53;;
14096;SDS011;7125;48.106;11.544;2023-05-27T01:32:18;11.27;;;9.03;;
14096;SDS011;7125;48.106;11.544;2023-05-27T01:34:51;10.47;;;8.77;;
14096;SDS011;7125;48.106;11.544;2023-05-27T01:37:27;13.87;;;9.77;;
14096;SDS011;7125;48.106;11.544;2023-05-27T01:39:58;10.80;;;9.17;;
14096;SDS011;7125;48.106;11.544;2023-05-27T01:42:28;10.27;;;9.13;;
14096;SDS011;7125;48.106;11.544;2023-05-27T01:44:55;10.50;;;9.40;;
14096;SDS011;7125;48.106;11.544;2023-05-27T01:47:25;10.57;;;9.57;;
14096;SDS011;7125;48.106;11.544;2023-05-27T01:49:54;12.30;;;9.00;;
14096;SDS011;7125;48.106;11.544;2023-05-27T01:52:21;10.53;;;9.03;;
14096;SDS011;7125;48.106;11.544;2023-05-27T01:54:49;9.93;;;8.93;;
14096;SDS011;7125;48.106;11.544;2023-05-27T01:57:16;12.27;;;9.03;;
14096;SDS011;7125;48.106;11.544;2023-05-27T01:59:43;10.87;;;9.03;;
14096;SDS011;7125;48.106;11.544;2023-05-27T02:02:10;11.07;;;8.68;;
14096;SDS011;7125;48.106;11.544;2023-05-27T02:04:37;11.55;;;9.52;;
14096;SDS011;7125;48.106;11.544;2023-05-27T02:07:04;10.97;;;9.33;;
14096;SDS011;7125;48.106;11.544;2023-05-27T02:09:32;9.98;;;8.65;;
14096;SDS011;7125;48.106;11.544;2023-05-27T02:12:00;12.07;;;9.80;;
14096;SDS011;7125;48.106;11.544;2023-05-27T02:14:30;11.57;;;9.00;;
14096;SDS011;7125;48.106;11.544;2023-05-27T02:16:58;14.27;;;9.87;;
14096;SDS011;7125;48.106;11.544;2023-05-27T02:19:25;10.40;;;9.40;;
14096;SDS011;7125;48.106;11.544;2023-05-27T02:21:52;12.27;;;9.43;;
14096;SDS011;7125;48.106;11.544;2023-05-27T02:24:19;12.43;;;8.90;;
14096;SDS011;7125;48.106;11.544;2023-05-27T02:26:48;9.97;;;8.27;;
14096;SDS011;7125;48.106;11.544;2023-05-27T02:29:18;9.73;;;8.73;;
14096;SDS011;7125;48.106;11.544;2023-05-27T02:31:48;10.23;;;9.13;;
14096;SDS011;7125;48.106;11.544;2023-05-27T02:34:15;10.07;;;8.37;;
14096;SDS011;7125;48.106;11.544;2023-05-27T02:36:43;12.67;;;9.47;;
14096;SDS011;7125;48.106;11.544;2023-05-27T02:39:10;12.38;;;8.85;;
14096;SDS011;7125;48.106;11.544;2023-05-27T02:41:38;10.13;;;9.07;;
14096;SDS011;7125;48.106;11.544;2023-05-27T02:44:05;11.47;;;8.93;;
14096;SDS011;7125;48.106;11.544;2023-05-27T02:46:33;10.97;;;8.83;;
14096;SDS011;7125;48.106;11.544;2023-05-27T02:49:00;9.47;;;8.33;;
14096;SDS011;7125;48.106;11.544;2023-05-27T02:51:28;12.90;;;9.10;;
14096;SDS011;7125;48.106;11.544;2023-05-27T02:53:56;10.87;;;8.37;;
14096;SDS011;7125;48.106;11.544;2023-05-27T02:56:23;9.27;;;8.33;;
14096;SDS011;7125;48.106;11.544;2023-05-27T02:58:51;13.80;;;9.63;;
14096;SDS011;7125;48.106;11.544;2023-05-27T03:01:18;10.37;;;9.33;;
14096;SDS011;7125;48.106;11.544;2023-05-27T03:03:47;10.47;;;9.00;;
14096;SDS011;7125;48.106;11.544;2023-05-27T03:06:14;10.17;;;9.17;;
14096;SDS011;7125;48.106;11.544;2023-05-27T03:08:41;9.37;;;8.47;;
14096;SDS011;7125;48.106;11.544;2023-05-27T03:11:08;9.30;;;8.33;;
14096;SDS011;7125;48.106;11.544;2023-05-27T03:13:35;10.77;;;9.13;;
14096;SDS011;7125;48.106;11.544;2023-05-27T03:16:03;11.93;;;8.70;;
14096;SDS011;7125;48.106;11.544;2023-05-27T03:18:31;10.87;;;9.23;;
14096;SDS011;7125;48.106;11.544;2023-05-27T03:20:59;10.00;;;8.70;;
14096;SDS011;7125;48.106;11.544;2023-05-27T03:23:27;11.83;;;9.47;;
14096;SDS011;7125;48.106;11.544;2023-05-27T03:25:54;10.80;;;8.37;;
14096;SDS011;7125;48.106;11.544;2023-05-27T03:28:21;11.40;;;9.77;;
14096;SDS011;7125;48.106;11.544;2023-05-27T03:30:48;9.53;;;8.47;;
14096;SDS011;7125;48.106;11.544;2023-05-27T03:33:34;13.93;;;9.80;;
14096;SDS011;7125;48.106;11.544;2023-05-27T03:36:02;17.43;;;10.07;;
14096;SDS011;7125;48.106;11.544;2023-05-27T03:38:30;11.47;;;8.63;;
14096;SDS011;7125;48.106;11.544;2023-05-27T03:40:57;13.90;;;9.90;;
14096;SDS011;7125;48.106;11.544;2023-05-27T03:43:24;12.10;;;8.57;;
14096;SDS011;7125;48.106;11.544;2023-05-27T03:45:51;10.67;;;9.60;;
14096;SDS011;7125;48.106;11.544;2023-05-27T03:48:19;11.97;;;9.27;;
14096;SDS011;7125;48.106;11.544;2023-05-27T03:50:46;11.33;;;9.17;;
14096;SDS011;7125;48.106;11.544;2023-05-27T03:53:14;12.43;;;9.63;;
14096;SDS011;7125;48.106;11.544;2023-05-27T03:55:41;11.13;;;10.13;;
14096;SDS011;7125;48.106;11.544;2023-05-27T03:58:08;10.60;;;9.40;;
14096;SDS011;7125;48.106;11.544;2023-05-27T04:00:38;14.13;;;10.07;;
14096;SDS011;7125;48.106;11.544;2023-05-27T04:03:07;13.17;;;9.87;;
14096;SDS011;7125;48.106;11.544;2023-05-27T04:05:34;13.70;;;9.30;;
14096;SDS011;7125;48.106;11.544;2023-05-27T04:08:01;10.43;;;9.33;;
14096;SDS011;7125;48.106;11.544;2023-05-27T04:10:31;13.00;;;9.80;;
14096;SDS011;7125;48.106;11.544;2023-05-27T04:12:58;9.87;;;8.90;;
14096;SDS011;7125;48.106;11.544;2023-05-27T04:15:24;9.63;;;8.50;;
14096;SDS011;7125;48.106;11.544;2023-05-27T04:17:52;11.87;;;9.60;;
14096;SDS011;7125;48.106;11.544;2023-05-27T04:20:19;11.47;;;9.87;;
14096;SDS011;7125;48.106;11.544;2023-05-27T04:22:52;12.50;;;9.37;;
14096;SDS011;7125;48.106;11.544;2023-05-27T04:25:19;11.80;;;9.00;;
14096;SDS011;7125;48.106;11.544;2023-05-27T04:28:01;14.27;;;9.67;;
14096;SDS011;7125;48.106;11.544;2023-05-27T04:30:31;10.40;;;9.30;;
14096;SDS011;7125;48.106;11.544;2023-05-27T04:33:00;11.23;;;9.03;;
14096;SDS011;7125;48.106;11.544;2023-05-27T04:35:27;12.00;;;9.63;;
14096;SDS011;7125;48.106;11.544;2023-05-27T04:37:56;10.77;;;9.67;;
14096;SDS011;7125;48.106;11.544;2023-05-27T04:40:27;14.90;;;10.10;;
14096;SDS011;7125;48.106;11.544;2023-05-27T04:43:15;12.13;;;10.13;;
14096;SDS011;7125;48.106;11.544;2023-05-27T04:45:42;14.60;;;9.87;;
14096;SDS011;7125;48.106;11.544;2023-05-27T04:48:10;10.77;;;9.67;;
14096;SDS011;7125;48.106;11.544;2023-05-27T04:50:37;14.17;;;8.57;;
14096;SDS011;7125;48.106;11.544;2023-05-27T04:53:04;11.27;;;10.13;;
14096;SDS011;7125;48.106;11.544;2023-05-27T04:55:31;12.57;;;8.30;;
14096;SDS011;7125;48.106;11.544;2023-05-27T04:57:58;12.33;;;8.80;;
14096;SDS011;7125;48.106;11.544;2023-05-27T05:00:30;12.10;;;9.10;;
14096;SDS011;7125;48.106;11.544;2023-05-27T05:03:04;13.73;;;9.20;;
14096;SDS011;7125;48.106;11.544;2023-05-27T05:05:33;12.97;;;9.20;;
14096;SDS011;7125;48.106;11.544;2023-05-27T05:08:05;9.00;;;8.00;;
14096;SDS011;7125;48.106;11.544;2023-05-27T05:10:33;10.57;;;8.57;;
14096;SDS011;7125;48.106;11.544;2023-05-27T05:13:03;10.07;;;8.40;;
14096;SDS011;7125;48.106;11.544;2023-05-27T05:15:31;10.23;;;8.17;;
14096;SDS011;7125;48.106;11.544;2023-05-27T05:17:59;12.60;;;7.90;;
14096;SDS011;7125;48.106;11.544;2023-05-27T05:20:26;8.87;;;7.63;;
14096;SDS011;7125;48.106;11.544;2023-05-27T05:22:54;8.60;;;7.30;;
14096;SDS011;7125;48.106;11.544;2023-05-27T05:25:22;12.33;;;7.33;;
14096;SDS011;7125;48.106;11.544;2023-05-27T05:27:52;8.67;;;6.97;;
14096;SDS011;7125;48.106;11.544;2023-05-27T05:30:20;10.40;;;7.93;;
14096;SDS011;7125;48.106;11.544;2023-05-27T05:32:48;13.80;;;7.53;;
14096;SDS011;7125;48.106;11.544;2023-05-27T05:35:16;10.47;;;7.27;;
14096;SDS011;7125;48.106;11.544;2023-05-27T05:37:50;8.93;;;7.50;;
14096;SDS011;7125;48.106;11.544;2023-05-27T05:40:17;14.07;;;7.40;;
14096;SDS011;7125;48.106;11.544;2023-05-27T05:42:59;9.80;;;6.97;;
14096;SDS011;7125;48.106;11.544;2023-05-27T05:45:26;9.00;;;6.47;;
14096;SDS011;7125;48.106;11.544;2023-05-27T05:47:56;10.23;;;7.00;;
14096;SDS011;7125;48.106;11.544;2023-05-27T05:50:27;10.80;;;6.97;;
14096;SDS011;7125;48.106;11.544;2023-05-27T05:52:54;7.70;;;6.90;;
14096;SDS011;7125;48.106;11.544;2023-05-27T05:55:21;11.07;;;7.63;;
14096;SDS011;7125;48.106;11.544;2023-05-27T05:57:48;13.77;;;7.50;;
14096;SDS011;7125;48.106;11.544;2023-05-27T06:00:16;10.33;;;6.37;;
14096;SDS011;7125;48.106;11.544;2023-05-27T06:02:43;12.83;;;7.63;;
14096;SDS011;7125;48.106;11.544;2023-05-27T06:05:19;11.90;;;6.57;;
14096;SDS011;7125;48.106;11.544;2023-05-27T06:07:47;11.33;;;6.97;;
14096;SDS011;7125;48.106;11.544;2023-05-27T06:10:14;10.13;;;6.77;;
14096;SDS011;7125;48.106;11.544;2023-05-27T06:12:42;8.05;;;7.10;;
14096;SDS011;7125;48.106;11.544;2023-05-27T06:15:10;8.52;;;6.22;;
14096;SDS011;7125;48.106;11.544;2023-05-27T06:17:41;14.35;;;6.95;;
14096;SDS011;7125;48.106;11.544;2023-05-27T06:20:08;11.02;;;6.18;;
14096;SDS011;7125;48.106;11.544;2023-05-27T06:22:37;8.97;;;6.97;;
14096;SDS011;7125;48.106;11.544;2023-05-27T06:25:30;7.63;;;5.72;;
14096;SDS011;7125;48.106;11.544;2023-05-27T06:28:02;10.33;;;6.03;;
14096;SDS011;7125;48.106;11.544;2023-05-27T06:30:29;11.90;;;6.90;;
14096;SDS011;7125;48.106;11.544;2023-05-27T06:32:58;13.52;;;7.07;;
14096;SDS011;7125;48.106;11.544;2023-05-27T06:35:27;9.45;;;6.03;;
14096;SDS011;7125;48.106;11.544;2023-05-27T06:37:57;11.40;;;6.07;;
14096;SDS011;7125;48.106;11.544;2023-05-27T06:40:24;8.13;;;5.28;;
14096;SDS011;7125;48.106;11.544;2023-05-27T06:42:52;8.18;;;5.35;;
14096;SDS011;7125;48.106;11.544;2023-05-27T06:45:58;9.80;;;5.90;;
14096;SDS011;7125;48.106;11.544;2023-05-27T06:48:34;13.93;;;5.82;;
14096;SDS011;7125;48.106;11.544;2023-05-27T06:51:01;8.73;;;5.18;;
14096;SDS011;7125;48.106;11.544;2023-05-27T06:53:30;12.77;;;6.35;;
14096;SDS011;7125;48.106;11.544;2023-05-27T06:56:05;7.45;;;6.13;;
14096;SDS011;7125;48.106;11.544;2023-05-27T06:58:51;8.23;;;4.93;;
14096;SDS011;7125;48.106;11.544;2023-05-27T07:01:19;8.85;;;5.72;;
14096;SDS011;7125;48.106;11.544;2023-05-27T07:03:52;8.48;;;5.63;;
14096;SDS011;7125;48.106;11.544;2023-05-27T07:06:35;12.48;;;6.28;;
14096;SDS011;7125;48.106;11.544;2023-05-27T07:09:04;13.40;;;6.63;;
14096;SDS011;7125;48.106;11.544;2023-05-27T07:11:33;9.45;;;5.63;;
14096;SDS011;7125;48.106;11.544;2023-05-27T07:14:05;11.13;;;5.68;;
14096;SDS011;7125;48.106;11.544;2023-05-27T07:16:34;8.68;;;5.32;;
14096;SDS011;7125;48.106;11.544;2023-05-27T07:19:03;11.68;;;5.15;;
14096;SDS011;7125;48.106;11.544;2023-05-27T07:21:35;13.02;;;5.57;;
14096;SDS011;7125;48.106;11.544;2023-05-27T07:24:09;7.78;;;4.90;;
14096;SDS011;7125;48.106;11.544;2023-05-27T07:26:37;6.38;;;4.75;;
14096;SDS011;7125;48.106;11.544;2023-05-27T07:29:04;7.40;;;4.53;;
14096;SDS011;7125;48.106;11.544;2023-05-27T07:31:54;7.03;;;5.22;;
14096;SDS011;7125;48.106;11.544;2023-05-27T07:34:27;7.53;;;4.85;;
14096;SDS011;7125;48.106;11.544;2023-05-27T07:36:55;9.73;;;5.30;;
14096;SDS011;7125;48.106;11.544;2023-05-27T07:39:24;12.10;;;5.22;;
14096;SDS011;7125;48.106;11.544;2023-05-27T07:41:51;8.32;;;5.00;;
14096;SDS011;7125;48.106;11.544;2023-05-27T07:44:18;6.93;;;4.43;;
14096;SDS011;7125;48.106;11.544;2023-05-27T07:46:45;12.05;;;5.80;;
14096;SDS011;7125;48.106;11.544;2023-05-27T07:49:12;17.98;;;5.45;;
14096;SDS011;7125;48.106;11.544;2023-05-27T07:52:05;12.25;;;5.32;;
14096;SDS011;7125;48.106;11.544;2023-05-27T07:54:33;5.40;;;4.85;;
14096;SDS011;7125;48.106;11.544;2023-05-27T07:57:00;10.20;;;5.45;;
14096;SDS011;7125;48.106;11.544;2023-05-27T07:59:28;18.85;;;5.00;;
14096;SDS011;7125;48.106;11.544;2023-05-27T08:01:55;10.27;;;6.32;;
14096;SDS011;7125;48.106;11.544;2023-05-27T08:04:22;6.90;;;4.22;;
14096;SDS011;7125;48.106;11.544;2023-05-27T08:07:07;14.68;;;5.30;;
14096;SDS011;7125;48.106;11.544;2023-05-27T08:09:53;6.35;;;4.10;;
14096;SDS011;7125;48.106;11.544;2023-05-27T08:12:34;9.35;;;5.05;;
14096;SDS011;7125;48.106;11.544;2023-05-27T08:15:14;6.68;;;4.72;;
14096;SDS011;7125;48.106;11.544;2023-05-27T08:17:49;7.03;;;4.43;;
14096;SDS011;7125;48.106;11.544;2023-05-27T08:20:27;8.25;;;4.60;;
14096;SDS011;7125;48.106;11.544;2023-05-27T08:23:09;10.98;;;4.63;;
14096;SDS011;7125;48.106;11.544;2023-05-27T08:26:02;7.15;;;4.57;;
14096;SDS011;7125;48.106;11.544;2023-05-27T08:28:36;9.70;;;5.10;;
14096;SDS011;7125;48.106;11.544;2023-05-27T08:31:22;10.63;;;4.93;;
14096;SDS011;7125;48.106;11.544;2023-05-27T08:33:54;8.57;;;5.18;;
14096;SDS011;7125;48.106;11.544;2023-05-27T08:36:21;11.27;;;5.95;;
14096;SDS011;7125;48.106;11.544;2023-05-27T08:38:50;5.97;;;4.60;;
14096;SDS011;7125;48.106;11.544;2023-05-27T08:41:25;8.88;;;5.38;;
14096;SDS011;7125;48.106;11.544;2023-05-27T08:43:54;10.88;;;5.00;;
14096;SDS011;7125;48.106;11.544;2023-05-27T08:46:21;9.95;;;5.88;;
14096;SDS011;7125;48.106;11.544;2023-05-27T08:48:49;8.00;;;5.13;;
14096;SDS011;7125;48.106;11.544;2023-05-27T08:51:17;5.55;;;5.05;;
14096;SDS011;7125;48.106;11.544;2023-05-27T08:53:45;8.98;;;5.25;;
14096;SDS011;7125;48.106;11.544;2023-05-27T08:56:14;7.85;;;4.82;;
14096;SDS011;7125;48.106;11.544;2023-05-27T08:58:48;6.63;;;4.78;;
14096;SDS011;7125;48.106;11.544;2023-05-27T09:01:19;18.48;;;6.00;;
14096;SDS011;7125;48.106;11.544;2023-05-27T09:03:49;7.78;;;5.70;;
14096;SDS011;7125;48.106;11.544;2023-05-27T09:06:18;10.48;;;6.05;;
14096;SDS011;7125;48.106;11.544;2023-05-27T09:08:45;9.35;;;4.88;;
14096;SDS011;7125;48.106;11.544;2023-05-27T09:11:18;7.57;;;5.13;;
14096;SDS011;7125;48.106;11.544;2023-05-27T09:13:46;13.93;;;6.13;;
14096;SDS011;7125;48.106;11.544;2023-05-27T09:16:19;9.05;;;5.75;;
14096;SDS011;7125;48.106;11.544;2023-05-27T09:18:48;16.38;;;6.90;;
14096;SDS011;7125;48.106;11.544;2023-05-27T09:21:15;11.10;;;6.25;;
14096;SDS011;7125;48.106;11.544;2023-05-27T09:23:42;9.90;;;6.05;;
14096;SDS011;7125;48.106;11.544;2023-05-27T09:26:10;13.75;;;6.32;;
14096;SDS011;7125;48.106;11.544;2023-05-27T09:28:38;9.85;;;6.20;;
14096;SDS011;7125;48.106;11.544;2023-05-27T09:31:08;13.23;;;6.90;;
14096;SDS011;7125;48.106;11.544;2023-05-27T09:33:36;14.07;;;6.07;;
14096;SDS011;7125;48.106;11.544;2023-05-27T09:36:04;6.90;;;5.20;;
14096;SDS011;7125;48.106;11.544;2023-05-27T09:38:34;12.77;;;5.90;;
14096;SDS011;7125;48.106;11.544;2023-05-27T09:41:02;9.65;;;5.97;;
14096;SDS011;7125;48.106;11.544;2023-05-27T09:43:30;7.68;;;5.60;;
14096;SDS011;7125;48.106;11.544;2023-05-27T09:45:58;7.60;;;5.28;;
14096;SDS011;7125;48.106;11.544;2023-05-27T09:48:27;8.75;;;5.15;;
14096;SDS011;7125;48.106;11.544;2023-05-27T09:50:56;10.35;;;5.95;;
14096;SDS011;7125;48.106;11.544;2023-05-27T09:53:25;14.40;;;6.40;;
14096;SDS011;7125;48.106;11.544;2023-05-27T09:55:52;7.38;;;4.97;;
14096;SDS011;7125;48.106;11.544;2023-05-27T09:58:20;8.38;;;5.53;;
14096;SDS011;7125;48.106;11.544;2023-05-27T10:00:48;12.98;;;6.63;;
14096;SDS011;7125;48.106;11.544;2023-05-27T10:03:16;9.77;;;5.43;;
14096;SDS011;7125;48.106;11.544;2023-05-27T10:05:48;8.57;;;5.32;;
14096;SDS011;7125;48.106;11.544;2023-05-27T10:08:16;8.30;;;5.82;;
14096;SDS011;7125;48.106;11.544;2023-05-27T10:10:44;10.93;;;6.05;;
14096;SDS011;7125;48.106;11.544;2023-05-27T10:13:11;7.25;;;6.03;;
14096;SDS011;7125;48.106;11.544;2023-05-27T10:15:45;9.45;;;6.72;;
14096;SDS011;7125;48.106;11.544;2023-05-27T10:18:21;10.73;;;6.60;;
14096;SDS011;7125;48.106;11.544;2023-05-27T10:20:50;11.50;;;5.97;;
14096;SDS011;7125;48.106;11.544;2023-05-27T10:23:19;8.23;;;5.70;;
14096;SDS011;7125;48.106;11.544;2023-05-27T10:25:48;8.00;;;6.10;;
14096;SDS011;7125;48.106;11.544;2023-05-27T10:28:23;8.10;;;5.75;;
14096;SDS011;7125;48.106;11.544;2023-05-27T10:31:02;8.93;;;5.53;;
14096;SDS011;7125;48.106;11.544;2023-05-27T10:33:31;8.98;;;5.65;;
14096;SDS011;7125;48.106;11.544;2023-05-27T10:36:05;9.48;;;6.43;;
14096;SDS011;7125;48.106;11.544;2023-05-27T10:38:34;8.23;;;5.53;;
14096;SDS011;7125;48.106;11.544;2023-05-27T10:41:02;11.10;;;5.63;;
14096;SDS011;7125;48.106;11.544;2023-05-27T10:43:32;8.07;;;5.43;;
14096;SDS011;7125;48.106;11.544;2023-05-27T10:46:03;6.38;;;5.15;;
14096;SDS011;7125;48.106;11.544;2023-05-27T10:48:33;7.93;;;5.53;;
14096;SDS011;7125;48.106;11.544;2023-05-27T10:51:00;8.68;;;5.35;;
14096;SDS011;7125;48.106;11.544;2023-05-27T10:53:29;7.03;;;5.53;;
14096;SDS011;7125;48.106;11.544;2023-05-27T10:55:57;7.78;;;5.63;;
14096;SDS011;7125;48.106;11.544;2023-05-27T10:58:25;6.95;;;5.22;;
14096;SDS011;7125;48.106;11.544;2023-05-27T11:00:53;8.90;;;6.65;;
14096;SDS011;7125;48.106;11.544;2023-05-27T11:03:22;6.45;;;4.75;;
14096;SDS011;7125;48.106;11.544;2023-05-27T11:05:57;7.68;;;5.95;;
14096;SDS011;7125;48.106;11.544;2023-05-27T11:08:29;12.32;;;6.35;;
14096;SDS011;7125;48.106;11.544;2023-05-27T11:10:57;8.57;;;5.35;;
14096;SDS011;7125;48.106;11.544;2023-05-27T11:13:30;6.68;;;5.68;;
14096;SDS011;7125;48.106;11.544;2023-05-27T11:15:58;11.10;;;5.72;;
14096;SDS011;7125;48.106;11.544;2023-05-27T11:18:33;7.40;;;5.25;;
14096;SDS011;7125;48.106;11.544;2023-05-27T11:21:03;7.72;;;5.07;;
14096;SDS011;7125;48.106;11.544;2023-05-27T11:23:36;8.70;;;5.72;;
14096;SDS011;7125;48.106;11.544;2023-05-27T11:26:10;10.80;;;5.97;;
14096;SDS011;7125;48.106;11.544;2023-05-27T11:28:44;9.25;;;6.20;;
14096;SDS011;7125;48.106;11.544;2023-05-27T11:31:14;9.65;;;5.35;;
14096;SDS011;7125;48.106;11.544;2023-05-27T11:33:41;7.65;;;4.97;;
14096;SDS011;7125;48.106;11.544;2023-05-27T11:36:10;13.60;;;5.88;;
14096;SDS011;7125;48.106;11.544;2023-05-27T11:38:46;8.15;;;4.97;;
14096;SDS011;7125;48.106;11.544;2023-05-27T11:41:17;7.88;;;4.93;;
14096;SDS011;7125;48.106;11.544;2023-05-27T11:43:52;8.77;;;4.85;;
14096;SDS011;7125;48.106;11.544;2023-05-27T11:46:21;8.27;;;5.35;;
14096;SDS011;7125;48.106;11.544;2023-05-27T11:48:48;7.95;;;6.20;;
14096;SDS011;7125;48.106;11.544;2023-05-27T11:51:15;7.32;;;6.63;;
14096;SDS011;7125;48.106;11.544;2023-05-27T11:53:44;6.50;;;5.05;;
14096;SDS011;7125;48.106;11.544;2023-05-27T11:56:13;6.25;;;5.60;;
14096;SDS011;7125;48.106;11.544;2023-05-27T11:58:41;9.65;;;6.07;;
14096;SDS011;7125;48.106;11.544;2023-05-27T12:01:08;9.07;;;5.30;;
14096;SDS011;7125;48.106;11.544;2023-05-27T12:03:35;11.85;;;5.85;;
14096;SDS011;7125;48.106;11.544;2023-05-27T12:06:03;8.93;;;5.32;;
14096;SDS011;7125;48.106;11.544;2023-05-27T12:08:30;9.27;;;4.82;;
14096;SDS011;7125;48.106;11.544;2023-05-27T12:10:59;7.68;;;4.82;;
14096;SDS011;7125;48.106;11.544;2023-05-27T12:13:27;9.95;;;5.53;;
14096;SDS011;7125;48.106;11.544;2023-05-27T12:15:58;7.00;;;4.55;;
14096;SDS011;7125;48.106;11.544;2023-05-27T12:18:25;9.75;;;5.35;;
14096;SDS011;7125;48.106;11.544;2023-05-27T12:20:52;9.52;;;4.97;;
14096;SDS011;7125;48.106;11.544;2023-05-27T12:23:19;7.38;;;4.93;;
14096;SDS011;7125;48.106;11.544;2023-05-27T12:25:47;10.05;;;4.53;;
14096;SDS011;7125;48.106;11.544;2023-05-27T12:28:15;5.05;;;4.35;;
14096;SDS011;7125;48.106;11.544;2023-05-27T12:30:42;7.43;;;4.40;;
14096;SDS011;7125;48.106;11.544;2023-05-27T12:33:09;5.30;;;4.80;;
14096;SDS011;7125;48.106;11.544;2023-05-27T12:35:36;11.63;;;4.03;;
14096;SDS011;7125;48.106;11.544;2023-05-27T12:38:03;8.80;;;4.90;;
14096;SDS011;7125;48.106;11.544;2023-05-27T12:40:30;10.88;;;5.10;;
14096;SDS011;7125;48.106;11.544;2023-05-27T12:42:58;9.05;;;4.35;;
14096;SDS011;7125;48.106;11.544;2023-05-27T12:45:26;7.70;;;5.00;;
14096;SDS011;7125;48.106;11.544;2023-05-27T12:47:54;12.55;;;4.80;;
14096;SDS011;7125;48.106;11.544;2023-05-27T12:50:21;5.18;;;3.85;;
14096;SDS011;7125;48.106;11.544;2023-05-27T12:52:50;4.97;;;4.28;;
14096;SDS011;7125;48.106;11.544;2023-05-27T12:55:18;8.90;;;5.32;;
14096;SDS011;7125;48.106;11.544;2023-05-27T12:57:48;6.88;;;5.03;;
14096;SDS011;7125;48.106;11.544;2023-05-27T13:00:16;7.20;;;4.95;;
14096;SDS011;7125;48.106;11.544;2023-05-27T13:02:45;5.60;;;4.80;;
14096;SDS011;7125;48.106;11.544;2023-05-27T13:05:13;6.15;;;4.70;;
14096;SDS011;7125;48.106;11.544;2023-05-27T13:07:51;7.38;;;4.55;;
14096;SDS011;7125;48.106;11.544;2023-05-27T13:10:20;7.93;;;4.57;;
14096;SDS011;7125;48.106;11.544;2023-05-27T13:12:47;7.68;;;5.10;;
14096;SDS011;7125;48.106;11.544;2023-05-27T13:15:15;9.68;;;4.93;;
14096;SDS011;7125;48.106;11.544;2023-05-27T13:17:42;7.13;;;4.80;;
14096;SDS011;7125;48.106;11.544;2023-05-27T13:20:11;5.95;;;4.53;;
14096;SDS011;7125;48.106;11.544;2023-05-27T13:22:39;7.63;;;5.13;;
14096;SDS011;7125;48.106;11.544;2023-05-27T13:25:06;9.95;;;4.75;;
14096;SDS011;7125;48.106;11.544;2023-05-27T13:27:34;11.32;;;4.78;;
14096;SDS011;7125;48.106;11.544;2023-05-27T13:30:01;9.75;;;4.45;;
14096;SDS011;7125;48.106;11.544;2023-05-27T13:32:28;12.05;;;4.95;;
14096;SDS011;7125;48.106;11.544;2023-05-27T13:34:58;7.43;;;4.50;;
14096;SDS011;7125;48.106;11.544;2023-05-27T13:37:26;10.75;;;4.68;;
14096;SDS011;7125;48.106;11.544;2023-05-27T13:39:53;10.35;;;5.03;;
14096;SDS011;7125;48.106;11.544;2023-05-27T13:42:22;9.05;;;4.38;;
14096;SDS011;7125;48.106;11.544;2023-05-27T13:44:49;11.32;;;5.63;;
14096;SDS011;7125;48.106;11.544;2023-05-27T13:47:16;6.15;;;4.97;;
14096;SDS011;7125;48.106;11.544;2023-05-27T13:49:43;7.35;;;4.53;;
14096;SDS011;7125;48.106;11.544;2023-05-27T13:52:10;8.98;;;5.38;;
14096;SDS011;7125;48.106;11.544;2023-05-27T13:54:38;6.80;;;4.50;;
14096;SDS011;7125;48.106;11.544;2023-05-27T13:57:05;10.73;;;4.60;;
14096;SDS011;7125;48.106;11.544;2023-05-27T13:59:31;8.75;;;4.97;;
14096;SDS011;7125;48.106;11.544;2023-05-27T14:01:59;8.30;;;4.30;;
14096;SDS011;7125;48.106;11.544;2023-05-27T14:04:30;5.40;;;4.07;;
14096;SDS011;7125;48.106;11.544;2023-05-27T14:06:57;6.72;;;4.82;;
14096;SDS011;7125;48.106;11.544;2023-05-27T14:09:24;5.90;;;5.40;;
14096;SDS011;7125;48.106;11.544;2023-05-27T14:11:55;8.98;;;4.55;;
14096;SDS011;7125;48.106;11.544;2023-05-27T14:14:22;6.35;;;4.95;;
14096;SDS011;7125;48.106;11.544;2023-05-27T14:16:49;6.68;;;5.25;;
14096;SDS011;7125;48.106;11.544;2023-05-27T14:19:16;6.05;;;4.72;;
14096;SDS011;7125;48.106;11.544;2023-05-27T14:21:43;5.38;;;4.20;;
14096;SDS011;7125;48.106;11.544;2023-05-27T14:24:10;6.30;;;4.43;;
14096;SDS011;7125;48.106;11.544;2023-05-27T14:26:40;9.75;;;4.55;;
14096;SDS011;7125;48.106;11.544;2023-05-27T14:29:10;7.60;;;4.13;;
14096;SDS011;7125;48.106;11.544;2023-05-27T14:31:37;5.43;;;4.28;;
14096;SDS011;7125;48.106;11.544;2023-05-27T14:34:04;10.75;;;5.40;;
14096;SDS011;7125;48.106;11.544;2023-05-27T14:36:31;7.05;;;4.30;;
14096;SDS011;7125;48.106;11.544;2023-05-27T14:38:58;11.88;;;4.68;;
14096;SDS011;7125;48.106;11.544;2023-05-27T14:41:28;9.32;;;4.45;;
14096;SDS011;7125;48.106;11.544;2023-05-27T14:43:55;5.20;;;4.35;;
14096;SDS011;7125;48.106;11.544;2023-05-27T14:46:23;7.45;;;4.22;;
14096;SDS011;7125;48.106;11.544;2023-05-27T14:48:51;8.95;;;4.53;;
14096;SDS011;7125;48.106;11.544;2023-05-27T14:51:17;6.43;;;4.07;;
14096;SDS011;7125;48.106;11.544;2023-05-27T14:53:45;7.43;;;3.80;;